sensor_id;sensor_type;location;lat;lon;timestamp;P1;durP1;ratioP1;P2;durP2;ratioP2
11614;SDS011;5863;52.832;4.758;2023-09-18T00:01:23;59.15;;;33.55;;
11614;SDS011;5863;52.832;4.758;2023-09-18T00:03:51;59.10;;;34.33;;
11614;SDS011;5863;52.832;4.758;2023-09-18T00:06:18;59.60;;;34.47;;
11614;SDS011;5863;52.832;4.758;2023-09-18T00:08:48;55.70;;;35.03;;
11614;SDS011;5863;52.832;4.758;2023-09-18T00:11:16;64.68;;;35.75;;
11614;SDS011;5863;52.832;4.758;2023-09-18T00:13:43;52.83;;;32.38;;
11614;SDS011;5863;52.832;4.758;2023-09-18T00:16:09;58.45;;;33.75;;
11614;SDS011;5863;52.832;4.758;2023-09-18T00:18:37;59.08;;;33.72;;
11614;SDS011;5863;52.832;4.758;2023-09-18T00:21:05;58.30;;;34.90;;
11614;SDS011;5863;52.832;4.758;2023-09-18T00:23:33;54.25;;;33.72;;
11614;SDS011;5863;52.832;4.758;2023-09-18T00:26:00;52.33;;;32.50;;
11614;SDS011;5863;52.832;4.758;2023-09-18T00:28:27;56.47;;;33.45;;
11614;SDS011;5863;52.832;4.758;2023-09-18T00:30:53;54.47;;;33.72;;
11614;SDS011;5863;52.832;4.758;2023-09-18T00:33:20;51.17;;;31.50;;
11614;SDS011;5863;52.832;4.758;2023-09-18T00:35:47;51.72;;;32.17;;
11614;SDS011;5863;52.832;4.758;2023-09-18T00:38:15;52.47;;;30.33;;
11614;SDS011;5863;52.832;4.758;2023-09-18T00:40:42;46.80;;;29.80;;
11614;SDS011;5863;52.832;4.758;2023-09-18T00:43:09;47.35;;;30.00;;
11614;SDS011;5863;52.832;4.758;2023-09-18T00:45:38;52.72;;;30.52;;
11614;SDS011;5863;52.832;4.758;2023-09-18T00:48:07;52.33;;;31.58;;
11614;SDS011;5863;52.832;4.758;2023-09-18T00:50:35;53.80;;;30.65;;
11614;SDS011;5863;52.832;4.758;2023-09-18T00:53:02;50.47;;;30.23;;
11614;SDS011;5863;52.832;4.758;2023-09-18T00:55:31;48.50;;;29.85;;
11614;SDS011;5863;52.832;4.758;2023-09-18T00:57:59;50.95;;;29.23;;
11614;SDS011;5863;52.832;4.758;2023-09-18T01:00:26;43.03;;;27.85;;
11614;SDS011;5863;52.832;4.758;2023-09-18T01:02:52;45.50;;;29.17;;
11614;SDS011;5863;52.832;4.758;2023-09-18T01:05:19;43.42;;;28.75;;
11614;SDS011;5863;52.832;4.758;2023-09-18T01:07:46;48.70;;;30.98;;
11614;SDS011;5863;52.832;4.758;2023-09-18T01:10:13;45.55;;;28.85;;
11614;SDS011;5863;52.832;4.758;2023-09-18T01:12:44;43.47;;;28.48;;
11614;SDS011;5863;52.832;4.758;2023-09-18T01:15:15;43.25;;;30.00;;
11614;SDS011;5863;52.832;4.758;2023-09-18T01:17:48;40.38;;;28.80;;
11614;SDS011;5863;52.832;4.758;2023-09-18T01:20:15;43.83;;;30.02;;
11614;SDS011;5863;52.832;4.758;2023-09-18T01:22:43;44.33;;;29.20;;
11614;SDS011;5863;52.832;4.758;2023-09-18T01:25:10;43.08;;;28.95;;
11614;SDS011;5863;52.832;4.758;2023-09-18T01:27:37;43.47;;;28.23;;
11614;SDS011;5863;52.832;4.758;2023-09-18T01:30:04;39.10;;;28.80;;
11614;SDS011;5863;52.832;4.758;2023-09-18T01:32:31;41.67;;;28.17;;
11614;SDS011;5863;52.832;4.758;2023-09-18T01:35:00;38.92;;;28.35;;
11614;SDS011;5863;52.832;4.758;2023-09-18T01:37:30;43.80;;;27.50;;
11614;SDS011;5863;52.832;4.758;2023-09-18T01:40:01;40.00;;;27.48;;
11614;SDS011;5863;52.832;4.758;2023-09-18T01:42:31;41.78;;;28.52;;
11614;SDS011;5863;52.832;4.758;2023-09-18T01:44:58;48.15;;;27.23;;
11614;SDS011;5863;52.832;4.758;2023-09-18T01:47:25;34.42;;;25.60;;
11614;SDS011;5863;52.832;4.758;2023-09-18T01:49:52;35.67;;;24.95;;
11614;SDS011;5863;52.832;4.758;2023-09-18T01:52:19;36.17;;;24.95;;
11614;SDS011;5863;52.832;4.758;2023-09-18T01:54:46;34.70;;;25.38;;
11614;SDS011;5863;52.832;4.758;2023-09-18T01:57:15;30.45;;;24.42;;
11614;SDS011;5863;52.832;4.758;2023-09-18T01:59:41;34.22;;;24.50;;
11614;SDS011;5863;52.832;4.758;2023-09-18T02:02:10;32.88;;;24.25;;
11614;SDS011;5863;52.832;4.758;2023-09-18T02:04:37;29.60;;;24.30;;
11614;SDS011;5863;52.832;4.758;2023-09-18T02:07:05;30.63;;;24.35;;
11614;SDS011;5863;52.832;4.758;2023-09-18T02:09:31;32.90;;;24.88;;
11614;SDS011;5863;52.832;4.758;2023-09-18T02:11:58;30.13;;;24.50;;
11614;SDS011;5863;52.832;4.758;2023-09-18T02:14:26;32.80;;;24.77;;
11614;SDS011;5863;52.832;4.758;2023-09-18T02:16:55;31.65;;;25.85;;
11614;SDS011;5863;52.832;4.758;2023-09-18T02:19:22;31.27;;;25.80;;
11614;SDS011;5863;52.832;4.758;2023-09-18T02:21:48;34.85;;;24.42;;
11614;SDS011;5863;52.832;4.758;2023-09-18T02:24:15;30.08;;;24.10;;
11614;SDS011;5863;52.832;4.758;2023-09-18T02:26:42;32.05;;;24.13;;
11614;SDS011;5863;52.832;4.758;2023-09-18T02:29:10;30.88;;;24.48;;
11614;SDS011;5863;52.832;4.758;2023-09-18T02:31:40;30.15;;;23.80;;
11614;SDS011;5863;52.832;4.758;2023-09-18T02:34:07;27.67;;;23.65;;
11614;SDS011;5863;52.832;4.758;2023-09-18T02:36:34;29.27;;;23.17;;
11614;SDS011;5863;52.832;4.758;2023-09-18T02:39:00;26.30;;;22.42;;
11614;SDS011;5863;52.832;4.758;2023-09-18T02:41:27;25.15;;;22.38;;
11614;SDS011;5863;52.832;4.758;2023-09-18T02:43:54;27.95;;;22.80;;
11614;SDS011;5863;52.832;4.758;2023-09-18T02:46:21;25.83;;;20.73;;
11614;SDS011;5863;52.832;4.758;2023-09-18T02:48:49;28.23;;;22.08;;
11614;SDS011;5863;52.832;4.758;2023-09-18T02:51:15;24.33;;;21.15;;
11614;SDS011;5863;52.832;4.758;2023-09-18T02:53:42;27.98;;;22.40;;
11614;SDS011;5863;52.832;4.758;2023-09-18T02:56:09;24.27;;;21.13;;
11614;SDS011;5863;52.832;4.758;2023-09-18T02:58:35;24.92;;;20.73;;
11614;SDS011;5863;52.832;4.758;2023-09-18T03:01:02;25.48;;;20.60;;
11614;SDS011;5863;52.832;4.758;2023-09-18T03:03:30;22.88;;;20.30;;
11614;SDS011;5863;52.832;4.758;2023-09-18T03:06:01;25.73;;;20.58;;
11614;SDS011;5863;52.832;4.758;2023-09-18T03:08:28;25.95;;;20.40;;
11614;SDS011;5863;52.832;4.758;2023-09-18T03:10:55;26.08;;;20.40;;
11614;SDS011;5863;52.832;4.758;2023-09-18T03:13:21;21.75;;;19.27;;
11614;SDS011;5863;52.832;4.758;2023-09-18T03:15:48;26.50;;;21.38;;
11614;SDS011;5863;52.832;4.758;2023-09-18T03:18:15;24.10;;;19.80;;
11614;SDS011;5863;52.832;4.758;2023-09-18T03:20:42;23.05;;;20.35;;
11614;SDS011;5863;52.832;4.758;2023-09-18T03:23:10;24.77;;;20.30;;
11614;SDS011;5863;52.832;4.758;2023-09-18T03:25:36;25.45;;;19.70;;
11614;SDS011;5863;52.832;4.758;2023-09-18T03:28:03;23.35;;;18.92;;
11614;SDS011;5863;52.832;4.758;2023-09-18T03:30:31;22.55;;;19.27;;
11614;SDS011;5863;52.832;4.758;2023-09-18T03:32:57;20.58;;;18.33;;
11614;SDS011;5863;52.832;4.758;2023-09-18T03:35:24;21.20;;;18.77;;
11614;SDS011;5863;52.832;4.758;2023-09-18T03:37:52;20.38;;;17.83;;
11614;SDS011;5863;52.832;4.758;2023-09-18T03:40:21;22.17;;;18.55;;
11614;SDS011;5863;52.832;4.758;2023-09-18T03:42:48;21.77;;;18.33;;
11614;SDS011;5863;52.832;4.758;2023-09-18T03:45:15;24.38;;;18.55;;
11614;SDS011;5863;52.832;4.758;2023-09-18T03:47:43;22.30;;;19.13;;
11614;SDS011;5863;52.832;4.758;2023-09-18T03:50:10;18.90;;;16.90;;
11614;SDS011;5863;52.832;4.758;2023-09-18T03:52:38;19.23;;;16.50;;
11614;SDS011;5863;52.832;4.758;2023-09-18T03:55:06;19.83;;;16.02;;
11614;SDS011;5863;52.832;4.758;2023-09-18T03:57:35;19.90;;;17.00;;
11614;SDS011;5863;52.832;4.758;2023-09-18T04:00:02;22.67;;;17.45;;
11614;SDS011;5863;52.832;4.758;2023-09-18T04:02:30;22.05;;;17.77;;
11614;SDS011;5863;52.832;4.758;2023-09-18T04:04:56;19.25;;;17.23;;
11614;SDS011;5863;52.832;4.758;2023-09-18T04:07:23;21.30;;;18.25;;
11614;SDS011;5863;52.832;4.758;2023-09-18T04:09:50;23.13;;;17.35;;
11614;SDS011;5863;52.832;4.758;2023-09-18T04:12:19;24.02;;;17.77;;
11614;SDS011;5863;52.832;4.758;2023-09-18T04:14:47;19.77;;;17.67;;
11614;SDS011;5863;52.832;4.758;2023-09-18T04:17:14;22.33;;;18.08;;
11614;SDS011;5863;52.832;4.758;2023-09-18T04:19:41;20.48;;;16.80;;
11614;SDS011;5863;52.832;4.758;2023-09-18T04:22:08;22.98;;;17.27;;
11614;SDS011;5863;52.832;4.758;2023-09-18T04:24:35;19.33;;;16.55;;
11614;SDS011;5863;52.832;4.758;2023-09-18T04:27:02;17.80;;;15.90;;
11614;SDS011;5863;52.832;4.758;2023-09-18T04:29:29;20.75;;;17.90;;
11614;SDS011;5863;52.832;4.758;2023-09-18T04:31:57;21.10;;;17.02;;
11614;SDS011;5863;52.832;4.758;2023-09-18T04:34:24;20.40;;;16.67;;
11614;SDS011;5863;52.832;4.758;2023-09-18T04:36:50;16.98;;;15.18;;
11614;SDS011;5863;52.832;4.758;2023-09-18T04:39:17;18.27;;;16.38;;
11614;SDS011;5863;52.832;4.758;2023-09-18T04:41:44;21.35;;;17.80;;
11614;SDS011;5863;52.832;4.758;2023-09-18T04:44:11;18.63;;;16.73;;
11614;SDS011;5863;52.832;4.758;2023-09-18T04:46:39;24.58;;;17.45;;
11614;SDS011;5863;52.832;4.758;2023-09-18T04:49:08;21.13;;;18.33;;
11614;SDS011;5863;52.832;4.758;2023-09-18T04:51:36;20.83;;;17.58;;
11614;SDS011;5863;52.832;4.758;2023-09-18T04:54:04;20.38;;;16.95;;
11614;SDS011;5863;52.832;4.758;2023-09-18T04:56:31;21.20;;;17.83;;
11614;SDS011;5863;52.832;4.758;2023-09-18T04:58:58;22.15;;;18.70;;
11614;SDS011;5863;52.832;4.758;2023-09-18T05:01:25;20.85;;;17.65;;
11614;SDS011;5863;52.832;4.758;2023-09-18T05:03:51;22.90;;;17.55;;
11614;SDS011;5863;52.832;4.758;2023-09-18T05:06:20;21.33;;;15.55;;
11614;SDS011;5863;52.832;4.758;2023-09-18T05:08:46;16.80;;;12.52;;
11614;SDS011;5863;52.832;4.758;2023-09-18T05:11:13;18.20;;;11.20;;
11614;SDS011;5863;52.832;4.758;2023-09-18T05:13:40;13.43;;;10.13;;
11614;SDS011;5863;52.832;4.758;2023-09-18T05:16:06;12.55;;;10.75;;
11614;SDS011;5863;52.832;4.758;2023-09-18T05:18:33;13.95;;;11.20;;
11614;SDS011;5863;52.832;4.758;2023-09-18T05:21:00;23.98;;;13.45;;
11614;SDS011;5863;52.832;4.758;2023-09-18T05:23:31;20.02;;;15.05;;
11614;SDS011;5863;52.832;4.758;2023-09-18T05:25:57;20.77;;;15.77;;
11614;SDS011;5863;52.832;4.758;2023-09-18T05:28:24;22.35;;;15.70;;
11614;SDS011;5863;52.832;4.758;2023-09-18T05:30:51;22.00;;;16.38;;
11614;SDS011;5863;52.832;4.758;2023-09-18T05:33:18;20.42;;;16.92;;
11614;SDS011;5863;52.832;4.758;2023-09-18T05:35:45;21.85;;;16.60;;
11614;SDS011;5863;52.832;4.758;2023-09-18T05:38:12;21.25;;;15.65;;
11614;SDS011;5863;52.832;4.758;2023-09-18T05:40:40;20.83;;;16.17;;
11614;SDS011;5863;52.832;4.758;2023-09-18T05:43:08;17.75;;;14.18;;
11614;SDS011;5863;52.832;4.758;2023-09-18T05:45:36;17.60;;;13.70;;
11614;SDS011;5863;52.832;4.758;2023-09-18T05:48:03;23.17;;;13.45;;
11614;SDS011;5863;52.832;4.758;2023-09-18T05:50:30;16.65;;;8.57;;
11614;SDS011;5863;52.832;4.758;2023-09-18T05:52:58;19.92;;;6.78;;
11614;SDS011;5863;52.832;4.758;2023-09-18T05:55:25;7.75;;;4.88;;
11614;SDS011;5863;52.832;4.758;2023-09-18T05:57:54;7.82;;;3.85;;
11614;SDS011;5863;52.832;4.758;2023-09-18T06:00:22;6.90;;;3.63;;
11614;SDS011;5863;52.832;4.758;2023-09-18T06:02:49;6.55;;;3.08;;
11614;SDS011;5863;52.832;4.758;2023-09-18T06:05:16;6.07;;;3.17;;
11614;SDS011;5863;52.832;4.758;2023-09-18T06:07:46;7.43;;;3.20;;
11614;SDS011;5863;52.832;4.758;2023-09-18T06:10:13;9.85;;;3.58;;
11614;SDS011;5863;52.832;4.758;2023-09-18T06:12:39;8.38;;;3.00;;
11614;SDS011;5863;52.832;4.758;2023-09-18T06:15:08;6.85;;;3.28;;
11614;SDS011;5863;52.832;4.758;2023-09-18T06:17:37;7.70;;;3.42;;
11614;SDS011;5863;52.832;4.758;2023-09-18T06:20:05;6.35;;;3.10;;
11614;SDS011;5863;52.832;4.758;2023-09-18T06:22:34;7.97;;;2.90;;
11614;SDS011;5863;52.832;4.758;2023-09-18T06:25:01;5.45;;;3.00;;
11614;SDS011;5863;52.832;4.758;2023-09-18T06:27:28;6.25;;;3.40;;
11614;SDS011;5863;52.832;4.758;2023-09-18T06:29:56;5.20;;;2.83;;
11614;SDS011;5863;52.832;4.758;2023-09-18T06:32:24;5.85;;;2.67;;
11614;SDS011;5863;52.832;4.758;2023-09-18T06:34:51;8.07;;;3.20;;
11614;SDS011;5863;52.832;4.758;2023-09-18T06:37:18;6.05;;;3.40;;
11614;SDS011;5863;52.832;4.758;2023-09-18T06:39:45;6.70;;;3.60;;
11614;SDS011;5863;52.832;4.758;2023-09-18T06:42:12;4.15;;;3.55;;
11614;SDS011;5863;52.832;4.758;2023-09-18T06:44:38;4.93;;;3.40;;
11614;SDS011;5863;52.832;4.758;2023-09-18T06:47:06;6.38;;;3.78;;
11614;SDS011;5863;52.832;4.758;2023-09-18T06:49:34;8.98;;;3.85;;
11614;SDS011;5863;52.832;4.758;2023-09-18T06:52:00;6.28;;;3.72;;
11614;SDS011;5863;52.832;4.758;2023-09-18T06:54:27;7.88;;;4.30;;
11614;SDS011;5863;52.832;4.758;2023-09-18T06:56:54;10.73;;;4.20;;
11614;SDS011;5863;52.832;4.758;2023-09-18T06:59:21;6.85;;;4.20;;
11614;SDS011;5863;52.832;4.758;2023-09-18T07:01:48;7.15;;;4.20;;
11614;SDS011;5863;52.832;4.758;2023-09-18T07:04:15;6.50;;;4.50;;
11614;SDS011;5863;52.832;4.758;2023-09-18T07:06:43;5.13;;;4.10;;
11614;SDS011;5863;52.832;4.758;2023-09-18T07:09:11;6.28;;;4.80;;
11614;SDS011;5863;52.832;4.758;2023-09-18T07:11:38;9.02;;;4.68;;
11614;SDS011;5863;52.832;4.758;2023-09-18T07:14:05;5.30;;;4.45;;
11614;SDS011;5863;52.832;4.758;2023-09-18T07:16:32;6.03;;;4.38;;
11614;SDS011;5863;52.832;4.758;2023-09-18T07:18:59;5.90;;;3.60;;
11614;SDS011;5863;52.832;4.758;2023-09-18T07:21:29;7.47;;;3.67;;
11614;SDS011;5863;52.832;4.758;2023-09-18T07:23:57;7.43;;;3.40;;
11614;SDS011;5863;52.832;4.758;2023-09-18T07:26:24;6.65;;;4.32;;
11614;SDS011;5863;52.832;4.758;2023-09-18T07:28:50;5.38;;;3.45;;
11614;SDS011;5863;52.832;4.758;2023-09-18T07:31:17;7.90;;;3.58;;
11614;SDS011;5863;52.832;4.758;2023-09-18T07:33:44;7.60;;;3.95;;
11614;SDS011;5863;52.832;4.758;2023-09-18T07:36:10;9.65;;;3.85;;
11614;SDS011;5863;52.832;4.758;2023-09-18T07:38:39;14.13;;;4.70;;
11614;SDS011;5863;52.832;4.758;2023-09-18T07:41:09;7.97;;;3.80;;
11614;SDS011;5863;52.832;4.758;2023-09-18T07:43:36;6.18;;;3.65;;
11614;SDS011;5863;52.832;4.758;2023-09-18T07:46:04;8.70;;;3.70;;
11614;SDS011;5863;52.832;4.758;2023-09-18T07:48:30;9.55;;;3.67;;
11614;SDS011;5863;52.832;4.758;2023-09-18T07:50:57;9.15;;;4.07;;
11614;SDS011;5863;52.832;4.758;2023-09-18T07:53:24;6.10;;;3.60;;
11614;SDS011;5863;52.832;4.758;2023-09-18T07:55:55;18.10;;;4.03;;
11614;SDS011;5863;52.832;4.758;2023-09-18T07:58:23;5.80;;;3.78;;
11614;SDS011;5863;52.832;4.758;2023-09-18T08:00:52;7.07;;;3.95;;
11614;SDS011;5863;52.832;4.758;2023-09-18T08:03:19;10.35;;;4.53;;
11614;SDS011;5863;52.832;4.758;2023-09-18T08:05:49;6.85;;;4.00;;
11614;SDS011;5863;52.832;4.758;2023-09-18T08:08:17;10.18;;;4.55;;
11614;SDS011;5863;52.832;4.758;2023-09-18T08:10:45;11.05;;;4.82;;
11614;SDS011;5863;52.832;4.758;2023-09-18T08:13:12;9.88;;;4.80;;
11614;SDS011;5863;52.832;4.758;2023-09-18T08:15:41;9.07;;;5.03;;
11614;SDS011;5863;52.832;4.758;2023-09-18T08:18:08;11.52;;;5.88;;
11614;SDS011;5863;52.832;4.758;2023-09-18T08:20:35;14.07;;;6.07;;
11614;SDS011;5863;52.832;4.758;2023-09-18T08:23:02;9.75;;;5.68;;
11614;SDS011;5863;52.832;4.758;2023-09-18T08:25:30;9.45;;;6.55;;
11614;SDS011;5863;52.832;4.758;2023-09-18T08:27:57;9.90;;;6.38;;
11614;SDS011;5863;52.832;4.758;2023-09-18T08:30:23;9.27;;;7.18;;
11614;SDS011;5863;52.832;4.758;2023-09-18T08:32:52;13.50;;;7.80;;
11614;SDS011;5863;52.832;4.758;2023-09-18T08:35:18;10.75;;;7.38;;
11614;SDS011;5863;52.832;4.758;2023-09-18T08:37:45;12.52;;;7.28;;
11614;SDS011;5863;52.832;4.758;2023-09-18T08:40:12;8.70;;;6.88;;
11614;SDS011;5863;52.832;4.758;2023-09-18T08:42:43;16.42;;;6.88;;
11614;SDS011;5863;52.832;4.758;2023-09-18T08:45:14;12.20;;;6.38;;
11614;SDS011;5863;52.832;4.758;2023-09-18T08:47:48;9.68;;;5.53;;
11614;SDS011;5863;52.832;4.758;2023-09-18T08:50:20;9.05;;;5.10;;
11614;SDS011;5863;52.832;4.758;2023-09-18T08:52:47;7.53;;;4.60;;
11614;SDS011;5863;52.832;4.758;2023-09-18T08:55:16;7.82;;;4.95;;
11614;SDS011;5863;52.832;4.758;2023-09-18T08:57:42;7.55;;;4.32;;
11614;SDS011;5863;52.832;4.758;2023-09-18T09:00:12;8.98;;;4.15;;
11614;SDS011;5863;52.832;4.758;2023-09-18T09:02:41;7.07;;;4.47;;
11614;SDS011;5863;52.832;4.758;2023-09-18T09:05:10;7.75;;;3.90;;
11614;SDS011;5863;52.832;4.758;2023-09-18T09:07:37;7.63;;;3.80;;
11614;SDS011;5863;52.832;4.758;2023-09-18T09:10:04;8.75;;;3.90;;
11614;SDS011;5863;52.832;4.758;2023-09-18T09:12:47;8.63;;;3.60;;
11614;SDS011;5863;52.832;4.758;2023-09-18T09:15:15;6.18;;;3.40;;
11614;SDS011;5863;52.832;4.758;2023-09-18T09:17:43;8.25;;;3.40;;
11614;SDS011;5863;52.832;4.758;2023-09-18T09:20:12;5.85;;;3.38;;
11614;SDS011;5863;52.832;4.758;2023-09-18T09:22:41;9.05;;;3.65;;
11614;SDS011;5863;52.832;4.758;2023-09-18T09:25:24;15.73;;;4.63;;
11614;SDS011;5863;52.832;4.758;2023-09-18T09:27:52;6.35;;;3.78;;
11614;SDS011;5863;52.832;4.758;2023-09-18T09:30:19;8.73;;;4.10;;
11614;SDS011;5863;52.832;4.758;2023-09-18T09:32:48;10.95;;;4.50;;
11614;SDS011;5863;52.832;4.758;2023-09-18T09:35:21;5.70;;;3.63;;
11614;SDS011;5863;52.832;4.758;2023-09-18T09:37:49;7.68;;;3.47;;
11614;SDS011;5863;52.832;4.758;2023-09-18T09:40:17;8.20;;;4.20;;
11614;SDS011;5863;52.832;4.758;2023-09-18T09:42:47;7.25;;;3.67;;
11614;SDS011;5863;52.832;4.758;2023-09-18T09:45:17;7.55;;;3.63;;
11614;SDS011;5863;52.832;4.758;2023-09-18T09:47:44;5.22;;;3.30;;
11614;SDS011;5863;52.832;4.758;2023-09-18T09:50:12;7.82;;;3.45;;
11614;SDS011;5863;52.832;4.758;2023-09-18T09:52:42;5.57;;;2.90;;
11614;SDS011;5863;52.832;4.758;2023-09-18T09:55:19;7.50;;;3.08;;
11614;SDS011;5863;52.832;4.758;2023-09-18T09:57:49;8.60;;;3.25;;
11614;SDS011;5863;52.832;4.758;2023-09-18T10:00:17;7.82;;;3.15;;
11614;SDS011;5863;52.832;4.758;2023-09-18T10:02:55;9.40;;;3.22;;
11614;SDS011;5863;52.832;4.758;2023-09-18T10:05:24;8.48;;;3.20;;
11614;SDS011;5863;52.832;4.758;2023-09-18T10:07:55;8.18;;;2.97;;
11614;SDS011;5863;52.832;4.758;2023-09-18T10:10:25;9.73;;;2.80;;
11614;SDS011;5863;52.832;4.758;2023-09-18T10:12:57;8.88;;;3.30;;
11614;SDS011;5863;52.832;4.758;2023-09-18T10:15:26;9.88;;;3.30;;
11614;SDS011;5863;52.832;4.758;2023-09-18T10:17:56;5.13;;;3.08;;
11614;SDS011;5863;52.832;4.758;2023-09-18T10:20:26;7.03;;;3.63;;
11614;SDS011;5863;52.832;4.758;2023-09-18T10:22:57;5.60;;;3.05;;
11614;SDS011;5863;52.832;4.758;2023-09-18T10:25:30;7.75;;;3.45;;
11614;SDS011;5863;52.832;4.758;2023-09-18T10:27:57;8.82;;;3.03;;
11614;SDS011;5863;52.832;4.758;2023-09-18T10:30:27;9.90;;;3.25;;
11614;SDS011;5863;52.832;4.758;2023-09-18T10:32:55;9.43;;;3.30;;
11614;SDS011;5863;52.832;4.758;2023-09-18T10:35:24;7.63;;;2.92;;
11614;SDS011;5863;52.832;4.758;2023-09-18T10:37:51;8.27;;;3.50;;
11614;SDS011;5863;52.832;4.758;2023-09-18T10:40:22;6.03;;;2.72;;
11614;SDS011;5863;52.832;4.758;2023-09-18T10:42:51;9.10;;;2.63;;
11614;SDS011;5863;52.832;4.758;2023-09-18T10:45:20;9.75;;;3.03;;
11614;SDS011;5863;52.832;4.758;2023-09-18T10:47:47;10.68;;;3.40;;
11614;SDS011;5863;52.832;4.758;2023-09-18T10:50:22;5.28;;;2.83;;
11614;SDS011;5863;52.832;4.758;2023-09-18T10:52:49;11.50;;;4.18;;
11614;SDS011;5863;52.832;4.758;2023-09-18T10:55:15;7.55;;;3.65;;
11614;SDS011;5863;52.832;4.758;2023-09-18T10:57:50;7.38;;;4.30;;
11614;SDS011;5863;52.832;4.758;2023-09-18T11:00:18;10.07;;;4.70;;
11614;SDS011;5863;52.832;4.758;2023-09-18T11:02:48;9.93;;;4.25;;
11614;SDS011;5863;52.832;4.758;2023-09-18T11:05:25;9.80;;;5.00;;
11614;SDS011;5863;52.832;4.758;2023-09-18T11:10:58;8.55;;;4.43;;
11614;SDS011;5863;52.832;4.758;2023-09-18T11:13:33;6.80;;;3.97;;
11614;SDS011;5863;52.832;4.758;2023-09-18T11:16:17;12.13;;;4.50;;
11614;SDS011;5863;52.832;4.758;2023-09-18T11:19:05;10.20;;;5.13;;
11614;SDS011;5863;52.832;4.758;2023-09-18T11:21:34;8.75;;;4.25;;
11614;SDS011;5863;52.832;4.758;2023-09-18T11:24:01;9.02;;;4.78;;
11614;SDS011;5863;52.832;4.758;2023-09-18T11:26:29;12.13;;;5.20;;
11614;SDS011;5863;52.832;4.758;2023-09-18T11:28:59;10.10;;;5.22;;
11614;SDS011;5863;52.832;4.758;2023-09-18T11:31:43;8.85;;;4.97;;
11614;SDS011;5863;52.832;4.758;2023-09-18T11:34:11;8.23;;;5.15;;
11614;SDS011;5863;52.832;4.758;2023-09-18T11:36:38;12.35;;;5.47;;
11614;SDS011;5863;52.832;4.758;2023-09-18T11:39:06;9.13;;;5.05;;
11614;SDS011;5863;52.832;4.758;2023-09-18T11:41:34;9.05;;;4.45;;
11614;SDS011;5863;52.832;4.758;2023-09-18T11:47:01;12.50;;;4.50;;
11614;SDS011;5863;52.832;4.758;2023-09-18T11:49:29;10.07;;;4.35;;
11614;SDS011;5863;52.832;4.758;2023-09-18T11:51:58;8.13;;;4.03;;
11614;SDS011;5863;52.832;4.758;2023-09-18T11:54:25;9.20;;;4.38;;
11614;SDS011;5863;52.832;4.758;2023-09-18T11:56:53;13.27;;;4.35;;
11614;SDS011;5863;52.832;4.758;2023-09-18T11:59:33;10.55;;;3.92;;
11614;SDS011;5863;52.832;4.758;2023-09-18T12:02:02;8.65;;;3.88;;
11614;SDS011;5863;52.832;4.758;2023-09-18T12:04:31;12.07;;;4.13;;
11614;SDS011;5863;52.832;4.758;2023-09-18T12:06:58;8.73;;;4.03;;
11614;SDS011;5863;52.832;4.758;2023-09-18T12:09:26;8.48;;;4.18;;
11614;SDS011;5863;52.832;4.758;2023-09-18T12:11:53;7.88;;;3.80;;
11614;SDS011;5863;52.832;4.758;2023-09-18T12:14:20;12.60;;;3.97;;
11614;SDS011;5863;52.832;4.758;2023-09-18T12:16:51;6.28;;;3.20;;
11614;SDS011;5863;52.832;4.758;2023-09-18T12:19:18;7.15;;;3.38;;
11614;SDS011;5863;52.832;4.758;2023-09-18T12:21:45;6.47;;;3.63;;
11614;SDS011;5863;52.832;4.758;2023-09-18T12:24:13;6.32;;;3.20;;
11614;SDS011;5863;52.832;4.758;2023-09-18T12:26:40;11.05;;;3.50;;
11614;SDS011;5863;52.832;4.758;2023-09-18T12:29:07;12.90;;;4.25;;
11614;SDS011;5863;52.832;4.758;2023-09-18T12:31:35;12.25;;;3.83;;
11614;SDS011;5863;52.832;4.758;2023-09-18T12:34:03;9.48;;;3.90;;
11614;SDS011;5863;52.832;4.758;2023-09-18T12:36:33;8.07;;;3.85;;
11614;SDS011;5863;52.832;4.758;2023-09-18T12:39:00;8.25;;;4.00;;
11614;SDS011;5863;52.832;4.758;2023-09-18T12:41:27;10.27;;;4.18;;
11614;SDS011;5863;52.832;4.758;2023-09-18T12:43:55;11.55;;;4.35;;
11614;SDS011;5863;52.832;4.758;2023-09-18T12:46:22;6.07;;;3.63;;
11614;SDS011;5863;52.832;4.758;2023-09-18T12:48:49;8.52;;;3.58;;
11614;SDS011;5863;52.832;4.758;2023-09-18T12:51:18;7.63;;;4.10;;
11614;SDS011;5863;52.832;4.758;2023-09-18T12:53:58;8.95;;;3.75;;
11614;SDS011;5863;52.832;4.758;2023-09-18T12:56:24;6.32;;;3.28;;
11614;SDS011;5863;52.832;4.758;2023-09-18T12:58:51;10.70;;;4.38;;
11614;SDS011;5863;52.832;4.758;2023-09-18T13:01:18;14.93;;;5.55;;
11614;SDS011;5863;52.832;4.758;2023-09-18T13:03:46;10.30;;;5.25;;
11614;SDS011;5863;52.832;4.758;2023-09-18T13:06:15;11.40;;;5.10;;
11614;SDS011;5863;52.832;4.758;2023-09-18T13:08:44;8.05;;;5.28;;
11614;SDS011;5863;52.832;4.758;2023-09-18T13:11:11;8.88;;;5.40;;
11614;SDS011;5863;52.832;4.758;2023-09-18T13:13:40;7.72;;;5.15;;
11614;SDS011;5863;52.832;4.758;2023-09-18T13:16:08;11.55;;;5.07;;
11614;SDS011;5863;52.832;4.758;2023-09-18T13:18:35;7.90;;;5.00;;
11614;SDS011;5863;52.832;4.758;2023-09-18T13:21:08;9.45;;;4.72;;
11614;SDS011;5863;52.832;4.758;2023-09-18T13:23:38;7.38;;;4.65;;
11614;SDS011;5863;52.832;4.758;2023-09-18T13:26:05;7.70;;;4.53;;
11614;SDS011;5863;52.832;4.758;2023-09-18T13:28:33;7.75;;;4.38;;
11614;SDS011;5863;52.832;4.758;2023-09-18T13:31:01;7.07;;;3.70;;
11614;SDS011;5863;52.832;4.758;2023-09-18T13:33:30;7.10;;;3.63;;
11614;SDS011;5863;52.832;4.758;2023-09-18T13:35:57;6.40;;;3.55;;
11614;SDS011;5863;52.832;4.758;2023-09-18T13:38:23;7.30;;;3.40;;
11614;SDS011;5863;52.832;4.758;2023-09-18T13:40:52;6.32;;;3.42;;
11614;SDS011;5863;52.832;4.758;2023-09-18T13:43:20;5.55;;;3.38;;
11614;SDS011;5863;52.832;4.758;2023-09-18T13:45:48;8.40;;;3.67;;
11614;SDS011;5863;52.832;4.758;2023-09-18T13:48:16;4.82;;;3.45;;
11614;SDS011;5863;52.832;4.758;2023-09-18T13:50:43;6.50;;;3.50;;
11614;SDS011;5863;52.832;4.758;2023-09-18T13:53:11;7.55;;;4.55;;
11614;SDS011;5863;52.832;4.758;2023-09-18T13:55:38;8.05;;;4.20;;
11614;SDS011;5863;52.832;4.758;2023-09-18T13:58:06;6.05;;;4.15;;
11614;SDS011;5863;52.832;4.758;2023-09-18T14:00:34;4.63;;;3.65;;
11614;SDS011;5863;52.832;4.758;2023-09-18T14:03:01;9.40;;;4.65;;
11614;SDS011;5863;52.832;4.758;2023-09-18T14:05:28;10.00;;;4.13;;
11614;SDS011;5863;52.832;4.758;2023-09-18T14:07:58;5.13;;;4.60;;
11614;SDS011;5863;52.832;4.758;2023-09-18T14:10:26;6.72;;;4.32;;
11614;SDS011;5863;52.832;4.758;2023-09-18T14:12:53;6.68;;;3.97;;
11614;SDS011;5863;52.832;4.758;2023-09-18T14:15:21;8.63;;;4.28;;
11614;SDS011;5863;52.832;4.758;2023-09-18T14:17:47;6.45;;;4.00;;
11614;SDS011;5863;52.832;4.758;2023-09-18T14:20:14;7.10;;;3.75;;
11614;SDS011;5863;52.832;4.758;2023-09-18T14:22:43;6.88;;;3.83;;
11614;SDS011;5863;52.832;4.758;2023-09-18T14:25:10;6.80;;;3.83;;
11614;SDS011;5863;52.832;4.758;2023-09-18T14:27:37;4.45;;;3.38;;
11614;SDS011;5863;52.832;4.758;2023-09-18T14:30:04;3.85;;;3.28;;
11614;SDS011;5863;52.832;4.758;2023-09-18T14:32:33;4.82;;;3.38;;
11614;SDS011;5863;52.832;4.758;2023-09-18T14:35:01;5.35;;;3.28;;
11614;SDS011;5863;52.832;4.758;2023-09-18T14:37:30;5.28;;;3.55;;
11614;SDS011;5863;52.832;4.758;2023-09-18T14:39:56;5.75;;;3.88;;
11614;SDS011;5863;52.832;4.758;2023-09-18T14:42:23;5.13;;;3.63;;
11614;SDS011;5863;52.832;4.758;2023-09-18T14:44:50;7.32;;;4.15;;
11614;SDS011;5863;52.832;4.758;2023-09-18T14:47:16;9.10;;;3.80;;
11614;SDS011;5863;52.832;4.758;2023-09-18T14:49:44;8.65;;;4.25;;
11614;SDS011;5863;52.832;4.758;2023-09-18T14:52:11;9.57;;;5.25;;
11614;SDS011;5863;52.832;4.758;2023-09-18T14:54:39;9.48;;;4.53;;
11614;SDS011;5863;52.832;4.758;2023-09-18T14:57:06;10.88;;;5.00;;
11614;SDS011;5863;52.832;4.758;2023-09-18T14:59:33;7.35;;;4.63;;